Time;durP1;ratioP1;P1;durP2;ratioP2;P2;SDS_P1;SDS_P2;PMS_P1;PMS_P2;Temp;Humidity;BMP_temperature;BMP_pressure;BME280_temperature;BME280_humidity;BME280_pressure;Samples;Min_cycle;Max_cycle;Signal;HPM_P1;HPM_P2
2022/05/31 00:01:30;;;;;;;3.00;1.57;;;;;;;10.13;57.12;98614.19;5156498;27;40024;-77
2022/05/31 00:03:59;;;;;;;1.97;1.30;;;;;;;10.24;57.22;98638.19;5156307;27;40761;-75
2022/05/31 00:06:27;;;;;;;1.40;1.30;;;;;;;10.20;56.83;98636.69;5175287;27;42799;-75
2022/05/31 00:08:54;;;;;;;1.20;1.10;;;;;;;10.16;56.96;98639.56;5156015;27;43622;-78
2022/05/31 00:11:22;;;;;;;1.20;1.10;;;;;;;10.12;57.05;98627.50;5175026;27;40956;-78
2022/05/31 00:13:50;;;;;;;1.03;1.03;;;;;;;10.07;56.95;98628.63;5175014;27;41683;-76
2022/05/31 00:16:18;;;;;;;1.83;1.67;;;;;;;10.03;57.01;98629.78;5174859;27;43678;-76
2022/05/31 00:18:45;;;;;;;1.07;1.00;;;;;;;10.00;57.08;98623.84;5173561;27;40723;-77
2022/05/31 00:21:14;;;;;;;1.03;1.00;;;;;;;9.92;57.25;98626.13;5175159;27;40191;-76
2022/05/31 00:23:43;;;;;;;1.40;1.30;;;;;;;9.90;57.38;98639.44;5174898;27;41738;-78
2022/05/31 00:26:11;;;;;;;1.73;1.00;;;;;;;9.87;57.42;98638.81;5173031;27;43197;-75
2022/05/31 00:28:38;;;;;;;0.87;0.87;;;;;;;9.64;57.18;98608.50;5173627;27;43172;-78
2022/05/31 00:31:07;;;;;;;1.20;1.10;;;;;;;9.78;57.21;98634.06;5156044;27;39817;-75
2022/05/31 00:33:35;;;;;;;1.57;1.00;;;;;;;9.60;56.95;98605.22;5172617;27;41690;-75
2022/05/31 00:36:02;;;;;;;1.30;1.20;;;;;;;9.70;57.14;98631.91;5173358;27;43049;-76
2022/05/31 00:38:32;;;;;;;1.83;0.90;;;;;;;9.63;57.10;98626.19;5174744;27;42589;-75
2022/05/31 00:41:24;;;;;;;1.07;0.80;;;;;;;9.61;57.85;98621.91;5156152;27;38842;-76
2022/05/31 00:43:52;;;;;;;1.10;0.97;;;;;;;9.60;57.46;98630.78;5171259;27;41445;-76
2022/05/31 00:46:22;;;;;;;1.17;1.00;;;;;;;9.57;58.55;98631.81;5155760;27;42917;-75
2022/05/31 00:48:56;;;;;;;1.50;1.40;;;;;;;9.57;58.95;98626.53;5173395;27;43078;-75
2022/05/31 00:51:27;;;;;;;1.43;1.30;;;;;;;9.56;58.79;98629.28;5156343;27;39738;-75
2022/05/31 00:54:01;;;;;;;1.80;1.23;;;;;;;9.52;59.68;98623.31;5156126;27;41760;-76
2022/05/31 00:56:31;;;;;;;1.37;1.20;;;;;;;9.53;59.10;98630.31;5171445;27;43749;-74
2022/05/31 00:59:02;;;;;;;1.90;1.10;;;;;;;9.33;58.96;98599.84;5172796;27;42284;-75
2022/05/31 01:01:32;;;;;;;1.23;1.10;;;;;;;9.48;59.03;98629.75;5170243;27;40764;-77
2022/05/31 01:04:01;;;;;;;0.90;0.90;;;;;;;9.45;59.76;98626.44;5173204;27;41298;-76
2022/05/31 01:06:28;;;;;;;1.57;1.10;;;;;;;9.40;59.56;98628.50;5173367;27;41816;-74
2022/05/31 01:08:59;;;;;;;3.00;1.13;;;;;;;9.37;59.79;98624.28;5155453;27;42713;-78
2022/05/31 01:11:39;;;;;;;1.10;1.00;;;;;;;9.34;59.68;98624.47;5173169;27;38977;-76
2022/05/31 01:14:45;;;;;;;0.90;0.90;;;;;;;9.31;59.57;98625.50;5174483;27;42686;-77
2022/05/31 01:17:31;;;;;;;1.40;0.83;;;;;;;9.31;59.48;98629.94;5171028;27;42910;-76
2022/05/31 01:20:21;;;;;;;1.13;1.10;;;;;;;9.34;59.85;98627.97;5173668;27;42205;-76
2022/05/31 01:22:57;;;;;;;1.60;1.30;;;;;;;9.38;59.51;98627.78;5155365;27;41111;-77
2022/05/31 01:25:46;;;;;;;1.00;1.00;;;;;;;9.42;59.38;98640.69;5172795;27;40807;-75
2022/05/31 01:28:21;;;;;;;1.27;1.03;;;;;;;9.45;59.10;98643.16;5169536;27;43535;-75
2022/05/31 01:30:57;;;;;;;0.93;0.90;;;;;;;9.47;58.91;98640.44;5155078;27;42076;-76
2022/05/31 01:33:29;;;;;;;0.80;0.80;;;;;;;9.46;58.99;98634.28;5172565;27;40215;-77
2022/05/31 01:36:06;;;;;;;1.03;0.93;;;;;;;9.47;59.10;98636.00;5155326;27;41828;-77
2022/05/31 01:38:41;;;;;;;1.33;1.07;;;;;;;9.46;59.40;98629.00;5170044;27;43788;-75
2022/05/31 01:41:15;;;;;;;2.20;1.40;;;;;;;9.39;59.53;98617.13;5155273;27;41704;-74
2022/05/31 01:43:44;;;;;;;1.80;1.30;;;;;;;9.38;59.52;98626.00;5155437;27;40177;-75
2022/05/31 01:46:16;;;;;;;1.30;1.20;;;;;;;9.34;60.41;98613.91;5175583;27;41892;-76
2022/05/31 01:48:44;;;;;;;1.53;1.27;;;;;;;9.35;59.95;98615.59;5174627;27;43104;-76
2022/05/31 01:51:14;;;;;;;1.13;1.03;;;;;;;9.29;60.56;98608.03;5158342;27;41379;-75
2022/05/31 01:53:42;;;;;;;2.93;1.50;;;;;;;9.29;60.60;98616.81;5176128;27;39851;-76
2022/05/31 01:56:11;;;;;;;1.70;1.43;;;;;;;9.27;61.38;98607.31;5175993;27;41205;-77
2022/05/31 01:58:43;;;;;;;1.40;1.30;;;;;;;9.16;61.30;98589.44;5175943;27;42769;-76
2022/05/31 02:01:11;;;;;;;1.40;1.30;;;;;;;9.23;61.57;98606.63;5176179;27;41894;-76
2022/05/31 02:03:40;;;;;;;1.60;1.40;;;;;;;9.22;61.05;98614.66;5175062;27;38664;-75
2022/05/31 02:09:07;;;;;;;1.13;1.03;;;;;;;9.18;60.85;98613.97;5109340;28;20617;-76
2022/05/31 02:11:36;;;;;;;1.13;1.03;;;;;;;9.17;60.53;98622.00;5139125;27;40772;-75
2022/05/31 02:14:22;;;;;;;1.20;1.03;;;;;;;9.12;60.56;98624.94;5091267;28;41809;-76
2022/05/31 02:16:50;;;;;;;1.00;1.00;;;;;;;8.79;60.67;98588.16;5124619;27;41776;-77
2022/05/31 02:19:50;;;;;;;2.60;1.87;;;;;;;9.08;61.03;98633.13;5096806;27;43049;-74
2022/05/31 02:22:27;;;;;;;1.23;1.13;;;;;;;9.06;61.23;98624.44;5106079;28;40931;-76
2022/05/31 02:24:56;;;;;;;1.63;1.27;;;;;;;9.05;60.85;98623.56;5091097;28;41479;-76
2022/05/31 02:27:24;;;;;;;1.47;1.13;;;;;;;9.05;61.22;98628.00;5124394;27;44580;-74
2022/05/31 02:29:51;;;;;;;1.00;0.93;;;;;;;9.05;61.48;98625.38;5090987;28;42017;-76
2022/05/31 02:32:19;;;;;;;1.50;1.40;;;;;;;9.05;61.44;98626.22;5141619;27;39900;-77
2022/05/31 02:34:50;;;;;;;2.50;1.57;;;;;;;9.05;61.65;98633.28;5142115;27;41784;-77
2022/05/31 02:37:21;;;;;;;1.93;1.63;;;;;;;8.98;61.76;98617.81;5124345;27;43051;-77
2022/05/31 02:39:49;;;;;;;1.30;1.20;;;;;;;9.06;61.56;98635.84;5107771;28;41981;-76
2022/05/31 02:42:19;;;;;;;1.00;1.00;;;;;;;9.05;61.19;98634.16;5124404;27;39192;-76
2022/05/31 02:44:47;;;;;;;1.70;1.20;;;;;;;9.06;61.06;98629.72;5107473;28;40676;-76
2022/05/31 02:47:16;;;;;;;1.47;1.20;;;;;;;9.08;60.92;98627.84;5108068;28;44021;-75
2022/05/31 02:49:45;;;;;;;1.97;1.17;;;;;;;9.05;61.19;98614.81;5141967;27;43294;-76
2022/05/31 02:52:13;;;;;;;2.23;1.30;;;;;;;9.10;61.98;98612.75;5107058;28;40987;-75
2022/05/31 02:54:40;;;;;;;1.50;1.40;;;;;;;9.17;61.64;98622.00;5107546;28;40915;-76
2022/05/31 02:57:38;;;;;;;1.30;1.20;;;;;;;9.20;61.14;98614.75;5071131;27;42095;-77
2022/05/31 03:00:25;;;;;;;1.40;1.00;;;;;;;9.24;61.02;98616.25;5107333;28;41000;-77
2022/05/31 03:03:18;;;;;;;2.10;1.10;;;;;;;9.27;61.17;98615.22;5106087;27;40063;-76
2022/05/31 03:06:05;;;;;;;1.40;1.20;;;;;;;9.28;61.09;98614.25;5106923;28;40601;-74
2022/05/31 03:08:43;;;;;;;1.00;0.90;;;;;;;9.24;61.17;98613.63;5123151;27;45112;-76
2022/05/31 03:11:20;;;;;;;1.30;1.10;;;;;;;9.26;62.00;98610.88;5089825;28;44282;-78
2022/05/31 03:13:53;;;;;;;1.20;1.03;;;;;;;9.26;61.96;98613.53;5106968;28;39877;-74
2022/05/31 03:16:23;;;;;;;2.40;1.63;;;;;;;9.05;62.51;98576.03;5107850;28;41215;-77
2022/05/31 03:18:54;;;;;;;1.50;1.30;;;;;;;9.23;62.45;98592.56;5103076;28;42906;-75
2022/05/31 03:21:27;;;;;;;1.37;1.27;;;;;;;9.26;62.47;98595.03;5093187;28;43515;-74
2022/05/31 03:24:00;;;;;;;1.70;1.60;;;;;;;9.24;62.81;98589.00;5094619;28;40733;-75
2022/05/31 03:26:32;;;;;;;1.50;1.40;;;;;;;9.17;62.75;98588.50;5093158;28;41009;-77
2022/05/31 03:29:02;;;;;;;2.27;1.57;;;;;;;9.24;62.91;98599.56;5093529;28;41636;-77
2022/05/31 03:31:31;;;;;;;2.43;1.57;;;;;;;9.22;62.76;98604.94;5092690;28;44788;-75
2022/05/31 03:33:59;;;;;;;1.50;1.40;;;;;;;9.22;62.70;98606.72;5076275;28;40011;-75
2022/05/31 03:36:26;;;;;;;2.10;1.80;;;;;;;9.21;62.66;98607.66;5092951;28;41783;-75
2022/05/31 03:39:04;;;;;;;2.17;1.40;;;;;;;9.21;62.62;98612.94;5076211;28;42263;-75
2022/05/31 03:41:34;;;;;;;1.27;1.17;;;;;;;9.19;62.30;98610.38;5126687;27;42509;-74
2022/05/31 03:44:04;;;;;;;2.70;1.40;;;;;;;9.22;62.53;98609.38;5124253;27;40810;-74
2022/05/31 03:46:51;;;;;;;1.57;1.23;;;;;;;9.23;62.33;98613.72;5091452;28;42474;-74
2022/05/31 03:49:18;;;;;;;3.10;1.90;;;;;;;9.24;62.42;98623.34;5093990;28;42717;-77
2022/05/31 03:51:56;;;;;;;2.47;1.70;;;;;;;9.26;62.55;98616.16;5090247;28;42121;-76
2022/05/31 03:54:36;;;;;;;1.80;1.27;;;;;;;9.28;62.07;98608.97;5123701;27;39758;-76
2022/05/31 03:57:16;;;;;;;1.57;1.47;;;;;;;9.33;62.09;98615.69;5091712;28;41859;-75
2022/05/31 03:59:48;;;;;;;1.57;1.20;;;;;;;9.39;62.30;98610.97;5123931;27;42791;-76
2022/05/31 04:02:15;;;;;;;1.50;1.40;;;;;;;9.45;62.09;98619.38;5109099;28;42072;-74
2022/05/31 04:04:44;;;;;;;2.60;1.53;;;;;;;9.52;62.32;98611.94;5092501;28;39626;-77
2022/05/31 04:07:11;;;;;;;1.40;1.27;;;;;;;9.60;62.16;98617.56;5107886;28;43111;-74
2022/05/31 04:09:40;;;;;;;1.40;1.30;;;;;;;9.66;62.02;98630.41;5092210;28;41699;-75
2022/05/31 04:12:11;;;;;;;1.80;1.63;;;;;;;9.73;61.76;98632.59;5124614;27;42035;-75
2022/05/31 04:14:59;;;;;;;1.60;1.50;;;;;;;9.85;61.80;98630.09;5090842;28;40960;-78
2022/05/31 04:17:27;;;;;;;1.27;1.17;;;;;;;9.91;61.71;98629.72;5126158;27;42709;-77
2022/05/31 04:19:55;;;;;;;1.77;1.40;;;;;;;9.94;61.59;98618.94;5126579;27;43022;-75
2022/05/31 04:22:22;;;;;;;1.30;1.20;;;;;;;9.90;62.33;98606.84;5125976;27;41941;-76
2022/05/31 04:25:00;;;;;;;2.70;1.30;;;;;;;9.84;62.84;98612.53;5123440;27;40229;-76
2022/05/31 04:27:47;;;;;;;1.50;1.40;;;;;;;9.79;62.59;98614.63;5091815;28;41042;-75
2022/05/31 04:30:51;;;;;;;1.63;1.40;;;;;;;9.71;62.66;98608.03;5052770;28;41670;-74
2022/05/31 04:33:39;;;;;;;1.80;1.40;;;;;;;9.72;63.14;98609.72;5091552;28;42843;-75
2022/05/31 04:36:10;;;;;;;2.43;1.73;;;;;;;9.69;63.10;98607.25;5109104;28;38794;-77
2022/05/31 04:38:38;;;;;;;1.47;1.23;;;;;;;9.77;62.79;98613.88;5074696;28;40805;-74
2022/05/31 04:41:20;;;;;;;3.57;1.53;;;;;;;9.87;62.35;98601.78;5088810;28;43713;-76
2022/05/31 04:44:06;;;;;;;1.60;1.33;;;;;;;10.00;62.76;98595.59;5074804;28;43458;-76
2022/05/31 04:46:38;;;;;;;1.90;1.60;;;;;;;10.13;62.59;98584.22;5108934;28;38899;-74
2022/05/31 04:49:13;;;;;;;2.10;1.90;;;;;;;10.26;62.80;98593.09;5123167;27;42782;-76
2022/05/31 04:51:43;;;;;;;2.37;1.60;;;;;;;10.37;63.45;98590.59;5092765;28;43774;-75
2022/05/31 04:54:16;;;;;;;2.37;1.87;;;;;;;10.50;63.82;98595.94;5074844;28;42612;-72
2022/05/31 04:57:01;;;;;;;2.60;1.90;;;;;;;10.65;63.08;98584.28;5090425;28;40691;-73
2022/05/31 04:59:31;;;;;;;1.67;1.57;;;;;;;10.80;62.83;98583.25;5108587;28;42078;-76
2022/05/31 05:02:00;;;;;;;2.63;1.67;;;;;;;10.96;63.00;98586.56;5107920;28;40787;-77
2022/05/31 05:04:51;;;;;;;2.73;1.57;;;;;;;11.14;62.41;98582.66;5086892;28;42250;-74
2022/05/31 05:07:54;;;;;;;2.17;1.40;;;;;;;11.31;62.00;98588.59;5052399;28;39015;-77
2022/05/31 05:10:25;;;;;;;3.17;1.30;;;;;;;11.44;61.59;98587.63;5066658;28;41867;-75
2022/05/31 05:13:07;;;;;;;1.50;1.40;;;;;;;11.51;61.24;98574.78;5123679;27;42808;-77
2022/05/31 05:15:55;;;;;;;2.33;1.70;;;;;;;11.67;61.19;98586.00;5074423;28;41118;-74
2022/05/31 05:18:29;;;;;;;2.10;1.70;;;;;;;11.79;61.12;98579.84;5124875;27;40194;-74
2022/05/31 05:21:00;;;;;;;1.77;1.67;;;;;;;11.88;60.85;98584.47;5074529;28;41799;-75
2022/05/31 05:23:29;;;;;;;2.17;1.90;;;;;;;12.02;60.68;98574.69;5107916;28;41447;-75
2022/05/31 05:25:58;;;;;;;1.90;1.80;;;;;;;12.14;60.45;98579.94;5091004;28;42851;-77
2022/05/31 05:31:40;;;;;;;3.07;1.70;;;;;;;12.44;59.99;98579.50;5088079;28;41747;-75
2022/05/31 05:34:52;;;;;;;1.90;1.67;;;;;;;12.61;59.87;98572.09;5090585;28;42428;-74
2022/05/31 05:37:21;;;;;;;3.53;1.90;;;;;;;12.75;60.00;98574.50;5072924;28;42577;-75
2022/05/31 05:39:55;;;;;;;1.83;1.73;;;;;;;12.87;59.67;98578.91;5064478;28;39062;-75
2022/05/31 05:42:43;;;;;;;3.53;1.90;;;;;;;12.96;59.49;98562.28;5073582;28;40778;-74
2022/05/31 05:45:11;;;;;;;2.03;1.57;;;;;;;13.16;59.14;98579.34;5091569;28;42832;-73
2022/05/31 05:47:41;;;;;;;2.27;2.03;;;;;;;13.29;59.16;98570.31;5088841;28;43131;-74
2022/05/31 05:50:11;;;;;;;2.00;1.90;;;;;;;13.41;58.95;98578.31;5107714;28;39138;-75
2022/05/31 05:52:57;;;;;;;1.80;1.70;;;;;;;13.57;58.65;98576.97;5090829;28;42036;-75
2022/05/31 05:55:43;;;;;;;1.93;1.80;;;;;;;13.72;58.46;98579.41;5091969;28;42792;-76
2022/05/31 05:58:30;;;;;;;1.97;1.87;;;;;;;13.87;57.76;98586.13;5091101;28;42353;-76
2022/05/31 06:01:22;;;;;;;2.00;1.50;;;;;;;14.01;57.52;98589.38;5088671;28;40921;-74
2022/05/31 06:04:05;;;;;;;2.37;1.67;;;;;;;14.17;57.43;98598.81;5121565;27;42695;-76
2022/05/31 06:06:37;;;;;;;1.67;1.57;;;;;;;14.33;57.17;98599.25;5090108;28;43978;-75
2022/05/31 06:09:08;;;;;;;1.87;1.53;;;;;;;14.48;57.14;98605.16;5090349;28;42652;-77
2022/05/31 06:11:41;;;;;;;3.97;1.60;;;;;;;14.56;56.89;98590.25;5073776;28;39062;-74
2022/05/31 06:14:13;;;;;;;1.70;1.60;;;;;;;14.76;56.67;98596.56;5087317;28;41796;-75
2022/05/31 06:16:46;;;;;;;2.60;1.70;;;;;;;14.90;56.14;98593.59;5107431;28;41649;-74
2022/05/31 06:19:17;;;;;;;1.97;1.80;;;;;;;15.06;55.74;98603.81;5106556;28;41163;-73
2022/05/31 06:21:48;;;;;;;1.70;1.60;;;;;;;15.21;55.40;98597.16;5107615;28;38761;-75
2022/05/31 06:24:39;;;;;;;1.67;1.40;;;;;;;15.39;55.14;98605.41;5089783;28;40645;-75
2022/05/31 06:27:27;;;;;;;2.80;1.60;;;;;;;15.54;54.88;98605.91;5089497;28;43960;-74
2022/05/31 06:29:55;;;;;;;2.77;2.10;;;;;;;15.73;54.47;98608.69;5106900;28;41069;-73
2022/05/31 06:32:23;;;;;;;3.73;1.80;;;;;;;15.84;54.30;98605.91;5075135;28;39969;-75
2022/05/31 06:34:50;;;;;;;1.60;1.50;;;;;;;15.96;54.34;98604.84;5112696;28;41665;-76
2022/05/31 06:37:35;;;;;;;2.13;1.60;;;;;;;16.11;54.00;98599.97;5128141;27;43014;-74
2022/05/31 06:40:04;;;;;;;2.60;1.90;;;;;;;16.26;53.62;98603.09;5096316;28;42695;-74
2022/05/31 06:42:55;;;;;;;3.17;1.87;;;;;;;16.49;52.61;98612.56;5085000;28;38716;-74
2022/05/31 06:45:41;;;;;;;2.23;1.90;;;;;;;16.59;52.35;98602.72;5093750;28;41044;-76
2022/05/31 06:48:41;;;;;;;1.93;1.60;;;;;;;16.78;51.51;98612.63;5078401;28;41794;-74
2022/05/31 06:57:48;;;;;;;5.20;1.73;;;;;;;17.52;51.13;98604.75;5094136;28;42579;-74
2022/05/31 07:00:24;;;;;;;1.67;1.57;;;;;;;17.81;50.62;98596.63;5110594;28;41507;-74
2022/05/31 07:02:54;;;;;;;1.67;1.40;;;;;;;18.05;50.93;98593.44;5127136;27;43147;-75
2022/05/31 07:05:22;;;;;;;1.23;1.13;;;;;;;18.31;50.17;98608.63;5093186;28;39948;-75
2022/05/31 07:07:53;;;;;;;5.30;1.90;;;;;;;18.49;48.55;98602.47;5109768;28;40502;-76
2022/05/31 07:10:41;;;;;;;1.90;1.70;;;;;;;18.85;47.29;98624.81;5093191;28;41842;-75
2022/05/31 07:13:18;;;;;;;2.53;1.50;;;;;;;19.06;47.54;98611.06;5093400;28;42194;-76
2022/05/31 07:16:05;;;;;;;1.60;1.50;;;;;;;19.29;46.05;98623.81;5091311;28;40853;-75
2022/05/31 07:18:59;;;;;;;1.87;1.57;;;;;;;19.52;46.94;98618.84;5092803;28;41551;-75
2022/05/31 07:21:30;;;;;;;1.60;1.50;;;;;;;19.71;44.84;98618.59;5109832;28;44518;-76
2022/05/31 07:23:58;;;;;;;2.83;1.70;;;;;;;20.27;44.68;98619.88;5094150;28;42222;-76
2022/05/31 07:26:29;;;;;;;1.80;1.60;;;;;;;20.96;43.46;98629.47;5092021;28;40007;-75
2022/05/31 07:28:57;;;;;;;2.10;1.50;;;;;;;21.59;42.89;98634.19;5109721;28;42002;-74
2022/05/31 07:31:26;;;;;;;2.40;1.50;;;;;;;21.73;41.87;98614.63;5109575;28;41928;-75
2022/05/31 07:34:10;;;;;;;1.80;1.70;;;;;;;22.00;41.35;98644.94;5090972;28;43133;-76
2022/05/31 07:36:38;;;;;;;1.53;1.30;;;;;;;22.34;41.18;98645.47;5093729;28;39945;-76
2022/05/31 07:39:11;;;;;;;1.57;1.43;;;;;;;22.46;40.89;98627.84;5109966;27;40352;-74
2022/05/31 07:41:42;;;;;;;2.43;1.60;;;;;;;22.85;40.34;98648.59;5075916;28;41604;-75
2022/05/31 07:44:11;;;;;;;2.83;1.60;;;;;;;22.64;39.69;98648.31;5109473;28;42802;-75
2022/05/31 07:46:39;;;;;;;1.37;1.27;;;;;;;23.05;38.70;98646.25;5075444;28;39237;-76
2022/05/31 07:49:08;;;;;;;1.60;1.40;;;;;;;24.23;36.96;98656.28;5126676;27;42473;-74
2022/05/31 07:51:46;;;;;;;1.60;1.27;;;;;;;24.75;36.68;98649.03;5090854;28;42777;-75
2022/05/31 07:54:39;;;;;;;1.40;1.30;;;;;;;25.52;35.89;98641.06;5090691;27;42293;-76
2022/05/31 08:00:47;;;;;;;2.10;1.90;;;;;;;25.45;34.33;98656.44;5054153;28;41604;-77
2022/05/31 08:03:15;;;;;;;1.43;1.33;;;;;;;27.72;31.91;98668.78;5065816;28;41879;-75
2022/05/31 08:05:43;;;;;;;2.50;1.70;;;;;;;30.02;27.99;98687.91;5126444;27;41936;-76
2022/05/31 08:08:11;;;;;;;1.63;1.53;;;;;;;31.49;25.80;98705.91;5093118;28;39868;-76
2022/05/31 08:10:40;;;;;;;1.17;1.17;;;;;;;32.28;26.23;98693.63;5126538;27;42688;-75
2022/05/31 08:13:09;;;;;;;1.43;1.30;;;;;;;32.85;25.52;98671.88;5093067;28;42819;-77
2022/05/31 08:15:36;;;;;;;2.53;1.07;;;;;;;33.82;24.44;98691.81;5092106;28;43092;-75
2022/05/31 08:18:04;;;;;;;1.43;1.33;;;;;;;33.91;23.34;98685.91;5108878;28;39943;-75
2022/05/31 08:20:32;;;;;;;1.30;1.13;;;;;;;32.63;25.19;98670.84;5093407;28;41886;-75
2022/05/31 08:23:01;;;;;;;2.27;1.07;;;;;;;32.03;25.87;98671.09;5074762;28;43520;-77
2022/05/31 08:25:29;;;;;;;1.47;1.37;;;;;;;32.43;25.03;98669.31;5091815;28;42029;-77
2022/05/31 08:27:56;;;;;;;1.30;1.27;;;;;;;32.63;24.80;98662.63;5093248;28;40065;-76
2022/05/31 08:30:25;;;;;;;1.87;1.57;;;;;;;32.86;24.74;98659.81;5126128;27;41853;-75
2022/05/31 08:32:54;;;;;;;3.13;1.70;;;;;;;32.61;23.75;98659.28;5092760;28;43738;-78
2022/05/31 08:35:22;;;;;;;1.60;1.50;;;;;;;32.27;24.07;98670.03;5091824;28;41481;-77
2022/05/31 08:37:49;;;;;;;1.63;1.53;;;;;;;32.08;25.37;98660.28;5092854;28;39978;-77
2022/05/31 08:40:17;;;;;;;1.53;1.30;;;;;;;31.80;25.21;98660.13;5091882;28;40781;-75
2022/05/31 08:42:53;;;;;;;1.10;1.00;;;;;;;30.88;25.96;98654.97;5125914;27;43333;-76
2022/05/31 08:45:32;;;;;;;2.53;1.50;;;;;;;30.10;26.61;98640.34;5108569;28;41449;-77
2022/05/31 08:48:09;;;;;;;1.57;1.37;;;;;;;30.07;26.82;98643.50;5125121;27;39929;-79
2022/05/31 08:53:39;;;;;;;1.53;1.20;;;;;;;31.65;25.27;98639.53;5091155;28;42847;-74
2022/05/31 08:59:02;;;;;;;1.37;1.20;;;;;;;30.77;26.39;98631.16;5074533;28;38480;-76
2022/05/31 09:01:35;;;;;;;1.63;1.50;;;;;;;30.08;26.28;98620.59;5108203;28;41935;-78
2022/05/31 09:04:15;;;;;;;1.60;1.50;;;;;;;29.27;27.11;98630.53;5087824;28;43016;-76
2022/05/31 09:06:48;;;;;;;1.97;1.40;;;;;;;28.34;29.33;98574.00;5091001;28;41363;-75
2022/05/31 09:09:19;;;;;;;1.70;1.40;;;;;;;28.08;29.36;98592.09;5088622;28;39902;-77
2022/05/31 09:12:00;;;;;;;1.97;1.57;;;;;;;27.95;29.29;98597.56;5089841;28;41555;-74
2022/05/31 09:14:50;;;;;;;1.60;1.30;;;;;;;27.90;30.00;98586.50;5091225;28;42676;-75
2022/05/31 09:17:26;;;;;;;1.67;1.57;;;;;;;28.77;28.57;98596.84;5089239;28;42280;-76
2022/05/31 09:20:02;;;;;;;1.53;1.40;;;;;;;29.16;28.52;98603.13;5108746;28;39946;-75
2022/05/31 09:22:31;;;;;;;1.83;1.13;;;;;;;29.79;28.10;98594.84;5089331;28;41783;-78
2022/05/31 09:24:58;;;;;;;1.50;1.40;;;;;;;30.14;26.85;98593.22;5091143;28;42863;-75
2022/05/31 09:27:39;;;;;;;2.03;1.10;;;;;;;30.36;27.11;98583.50;5107930;28;42547;-76
2022/05/31 09:30:11;;;;;;;1.37;1.23;;;;;;;30.96;26.39;98590.91;5090977;28;40205;-76
2022/05/31 09:32:59;;;;;;;1.30;1.20;;;;;;;31.44;26.57;98582.59;5123399;27;42670;-76
2022/05/31 09:35:42;;;;;;;2.37;1.33;;;;;;;31.86;25.46;98590.72;5089221;28;43702;-76
2022/05/31 09:38:30;;;;;;;1.40;1.30;;;;;;;32.12;26.21;98577.38;5073654;28;41319;-75
2022/05/31 09:41:07;;;;;;;2.13;1.37;;;;;;;32.59;23.95;98582.72;5108183;28;40063;-78
2022/05/31 09:43:41;;;;;;;1.93;1.80;;;;;;;33.66;23.10;98601.97;5091466;28;42674;-74
2022/05/31 09:46:12;;;;;;;1.83;1.73;;;;;;;35.03;22.02;98601.06;5088904;28;42709;-75
2022/05/31 09:48:47;;;;;;;1.60;1.50;;;;;;;34.63;21.46;98606.09;5124948;27;42187;-78
2022/05/31 09:51:23;;;;;;;1.73;1.50;;;;;;;35.36;20.86;98615.75;5087887;28;39714;-76
2022/05/31 09:57:19;;;;;;;1.40;1.30;;;;;;;33.71;21.96;98587.50;5091492;28;42647;-78
2022/05/31 10:00:15;;;;;;;3.90;1.30;;;;;;;33.57;22.99;98581.50;5091898;28;42006;-76
2022/05/31 10:03:09;;;;;;;2.13;1.50;;;;;;;33.26;22.95;98568.38;5090180;28;39180;-77
2022/05/31 10:05:39;;;;;;;1.63;1.50;;;;;;;32.60;23.12;98564.38;5091676;28;42541;-75
2022/05/31 10:08:16;;;;;;;1.40;1.33;;;;;;;32.51;24.23;98550.22;5089784;28;42613;-77
2022/05/31 10:10:48;;;;;;;2.40;1.63;;;;;;;32.86;24.27;98550.09;5088667;28;43418;-75
2022/05/31 10:13:36;;;;;;;1.67;1.57;;;;;;;33.39;21.99;98568.03;5089800;28;40705;-77
2022/05/31 10:16:16;;;;;;;1.97;1.17;;;;;;;33.89;21.06;98571.56;5107308;28;40558;-76
2022/05/31 10:18:51;;;;;;;1.23;1.13;;;;;;;33.98;21.54;98566.50;5090188;28;42899;-74
2022/05/31 10:21:32;;;;;;;2.53;1.50;;;;;;;34.23;21.56;98560.50;5088520;28;42071;-76
2022/05/31 10:24:09;;;;;;;1.53;1.37;;;;;;;34.03;21.44;98562.97;5121547;27;40003;-76
2022/05/31 10:27:07;;;;;;;1.40;1.30;;;;;;;33.48;21.47;98564.63;5088765;28;41610;-75
2022/05/31 10:29:54;;;;;;;2.30;1.20;;;;;;;33.09;21.61;98549.94;5092270;28;41521;-77
2022/05/31 10:32:55;;;;;;;1.50;1.00;;;;;;;32.75;20.83;98548.25;5093512;28;42162;-76
2022/05/31 10:35:25;;;;;;;1.17;1.07;;;;;;;32.88;21.65;98545.19;5110753;28;39904;-76
2022/05/31 10:37:59;;;;;;;1.97;1.77;;;;;;;33.12;21.04;98559.59;5110674;28;41636;-75
2022/05/31 10:40:39;;;;;;;1.77;0.97;;;;;;;33.17;22.75;98533.06;5090743;28;42512;-75
2022/05/31 10:43:33;;;;;;;2.43;1.33;;;;;;;33.24;19.84;98554.91;5110446;28;41575;-77
2022/05/31 10:46:06;;;;;;;1.40;1.30;;;;;;;33.15;21.12;98543.44;5090686;28;40651;-77
2022/05/31 10:48:40;;;;;;;1.50;1.27;;;;;;;33.07;20.58;98535.63;5093653;28;41872;-76
2022/05/31 10:51:12;;;;;;;1.33;1.10;;;;;;;33.06;21.36;98508.44;5093767;28;41805;-76
2022/05/31 10:53:54;;;;;;;1.07;0.90;;;;;;;33.10;19.87;98528.84;5076987;28;42358;-76
2022/05/31 10:56:30;;;;;;;2.40;1.00;;;;;;;33.02;21.24;98507.28;5090565;28;39795;-75
2022/05/31 10:59:01;;;;;;;2.17;1.50;;;;;;;33.13;19.85;98520.09;5124813;27;41747;-75
2022/05/31 11:01:49;;;;;;;1.27;1.10;;;;;;;32.63;19.99;98520.00;5093211;28;42111;-75
2022/05/31 11:04:47;;;;;;;2.13;1.10;;;;;;;32.07;21.85;98511.47;5109821;28;42007;-76
2022/05/31 11:07:28;;;;;;;1.00;1.00;;;;;;;31.71;22.12;98511.78;5075762;28;38845;-76
2022/05/31 11:13:21;;;;;;;1.43;1.00;;;;;;;31.85;21.48;98501.41;5092207;28;43691;-78
2022/05/31 11:15:58;;;;;;;1.30;1.00;;;;;;;32.23;21.05;98507.19;5124059;27;42239;-75
2022/05/31 11:18:43;;;;;;;1.20;0.90;;;;;;;32.40;21.76;98494.34;5092763;28;40833;-76
2022/05/31 11:21:21;;;;;;;1.73;1.10;;;;;;;32.72;19.43;98507.59;5094005;28;42382;-79
2022/05/31 11:24:07;;;;;;;2.13;1.20;;;;;;;32.82;20.24;98507.75;5126995;27;42829;-78
2022/05/31 11:26:47;;;;;;;0.93;0.93;;;;;;;32.89;19.80;98508.41;5090740;28;42359;-75
2022/05/31 11:29:37;;;;;;;1.10;0.90;;;;;;;32.90;19.55;98512.84;5090064;28;39817;-75
2022/05/31 11:32:13;;;;;;;1.23;0.97;;;;;;;33.09;19.79;98503.28;5109509;28;41246;-75
2022/05/31 11:34:55;;;;;;;1.23;0.80;;;;;;;33.37;18.89;98510.66;5124122;27;43467;-79
2022/05/31 11:37:40;;;;;;;1.37;0.90;;;;;;;33.97;19.22;98514.53;5124920;27;42645;-76
2022/05/31 11:40:21;;;;;;;1.70;0.93;;;;;;;34.00;18.34;98522.28;5092749;28;40040;-75
2022/05/31 11:43:28;;;;;;;1.27;1.00;;;;;;;33.41;19.24;98508.19;5092489;28;40969;-78
2022/05/31 11:46:03;;;;;;;1.43;0.93;;;;;;;33.86;19.23;98497.91;5123743;27;43884;-76
2022/05/31 11:48:47;;;;;;;1.00;1.00;;;;;;;33.60;18.89;98504.13;5092529;28;42417;-77
2022/05/31 11:51:26;;;;;;;1.63;1.00;;;;;;;34.08;19.80;98499.81;5109670;28;38876;-77
2022/05/31 11:54:18;;;;;;;0.93;0.80;;;;;;;35.98;18.56;98492.72;5075423;28;42057;-75
2022/05/31 11:56:51;;;;;;;1.13;0.83;;;;;;;36.02;17.70;98497.69;5126646;27;42655;-77
2022/05/31 11:59:24;;;;;;;1.33;0.90;;;;;;;36.20;17.80;98494.47;5089581;28;42734;-74
2022/05/31 12:01:59;;;;;;;2.33;0.97;;;;;;;36.20;16.83;98511.84;5091743;28;42298;-78
2022/05/31 12:04:35;;;;;;;1.60;1.10;;;;;;;36.80;17.21;98504.88;5123077;27;41905;-77
2022/05/31 12:07:09;;;;;;;0.93;0.93;;;;;;;37.34;17.31;98488.59;5091630;28;42532;-75
2022/05/31 12:09:42;;;;;;;0.93;0.93;;;;;;;37.49;17.19;98486.91;5092292;28;42448;-79
2022/05/31 12:12:15;;;;;;;0.90;0.83;;;;;;;38.96;16.33;98498.19;5089964;28;40495;-78
2022/05/31 12:14:49;;;;;;;1.33;1.10;;;;;;;39.21;15.51;98515.72;5092709;28;40696;-76
2022/05/31 12:17:19;;;;;;;1.00;1.00;;;;;;;38.60;16.25;98502.31;5091983;28;41953;-76
2022/05/31 12:19:54;;;;;;;1.10;1.00;;;;;;;38.15;16.25;98498.66;5069618;28;40949;-77
2022/05/31 12:22:28;;;;;;;2.70;1.33;;;;;;;37.61;17.25;98499.31;5090853;28;39956;-79
2022/05/31 12:25:01;;;;;;;1.90;1.60;;;;;;;37.04;16.89;98510.69;5089489;28;41666;-76
2022/05/31 12:27:39;;;;;;;1.93;1.30;;;;;;;36.85;17.54;98498.50;5090739;28;42715;-74
2022/05/31 12:30:19;;;;;;;2.27;1.23;;;;;;;36.97;17.70;98493.56;5089764;28;43220;-74
2022/05/31 12:32:49;;;;;;;1.10;1.00;;;;;;;36.09;18.40;98490.84;5091279;28;39899;-79
2022/05/31 12:35:54;;;;;;;1.23;1.13;;;;;;;34.95;19.20;98502.47;5074338;28;40994;-75
2022/05/31 12:38:23;;;;;;;1.10;1.00;;;;;;;34.01;18.93;98488.19;5090880;28;43117;-78
2022/05/31 12:40:52;;;;;;;1.53;1.07;;;;;;;33.94;20.48;98473.81;5092508;28;42297;-79
2022/05/31 12:43:47;;;;;;;1.20;1.10;;;;;;;35.29;18.96;98479.09;5075959;28;40150;-81
2022/05/31 12:46:29;;;;;;;1.20;0.93;;;;;;;36.07;18.48;98483.94;5089259;28;42641;-75